Time;durP1;ratioP1;P1;durP2;ratioP2;P2;SDS_P1;SDS_P2;PMS_P1;PMS_P2;Temp;Humidity;BMP_temperature;BMP_pressure;BME280_temperature;BME280_humidity;BME280_pressure;Samples;Min_cycle;Max_cycle;Signal;HPM_P1;HPM_P2
2023/04/25 00:02:24;;;;;;;13.80;7.97;;;;;;;;;;6127000;23;20037;-78
2023/04/25 00:04:50;;;;;;;10.27;8.10;;;;;;;;;;6101974;23;20010;-78
2023/04/25 00:07:16;;;;;;;7.88;7.03;;;;;;;;;;6127777;23;20029;-78
2023/04/25 00:09:42;;;;;;;14.90;6.95;;;;;;;;;;6142623;23;20014;-83
2023/04/25 00:12:08;;;;;;;10.98;7.13;;;;;;;;;;6126630;23;20045;-84
2023/04/25 00:14:35;;;;;;;13.15;8.13;;;;;;;;;;6098360;23;20018;-84
2023/04/25 00:17:02;;;;;;;17.65;8.15;;;;;;;;;;6102039;23;20037;-85
2023/04/25 00:19:28;;;;;;;14.57;8.00;;;;;;;;;;6143794;23;20016;-83
2023/04/25 00:21:55;;;;;;;15.38;9.35;;;;;;;;;;6140275;23;20029;-83
2023/04/25 00:24:21;;;;;;;19.50;10.65;;;;;;;;;;6121642;23;20009;-82
2023/04/25 00:26:47;;;;;;;13.55;9.10;;;;;;;;;;6119997;23;20032;-82
2023/04/25 00:29:13;;;;;;;17.23;9.38;;;;;;;;;;6142427;23;20096;-83
2023/04/25 00:31:39;;;;;;;11.95;8.65;;;;;;;;;;6086027;23;20018;-82
2023/04/25 00:34:09;;;;;;;22.08;8.63;;;;;;;;;;6104999;23;20459;-81
2023/04/25 00:36:36;;;;;;;12.85;7.63;;;;;;;;;;6131289;23;20090;-81
2023/04/25 00:39:02;;;;;;;10.45;7.80;;;;;;;;;;6130910;23;20029;-83
2023/04/25 00:41:30;;;;;;;21.00;7.75;;;;;;;;;;6105354;23;20371;-84
2023/04/25 00:43:55;;;;;;;18.33;7.95;;;;;;;;;;6106994;23;20014;-82
2023/04/25 00:46:21;;;;;;;19.17;9.02;;;;;;;;;;6103082;23;20097;-82
2023/04/25 00:48:48;;;;;;;12.90;9.00;;;;;;;;;;6103706;23;20109;-82
2023/04/25 00:51:16;;;;;;;17.77;8.70;;;;;;;;;;6110491;23;20017;-83
2023/04/25 00:53:42;;;;;;;14.35;8.90;;;;;;;;;;6132776;23;20014;-84
2023/04/25 00:56:08;;;;;;;15.27;9.00;;;;;;;;;;6132823;23;20014;-84
2023/04/25 00:58:36;;;;;;;17.27;10.57;;;;;;;;;;6142018;23;20033;-83
2023/04/25 01:01:02;;;;;;;17.88;10.35;;;;;;;;;;6086179;23;20018;-83
2023/04/25 01:03:29;;;;;;;16.90;10.48;;;;;;;;;;6104698;23;20021;-83
2023/04/25 01:05:55;;;;;;;13.85;9.63;;;;;;;;;;6129285;23;20266;-83
2023/04/25 01:08:21;;;;;;;24.58;10.40;;;;;;;;;;6105751;23;20025;-84
2023/04/25 01:10:47;;;;;;;15.23;11.50;;;;;;;;;;6112749;23;20010;-83
2023/04/25 01:13:14;;;;;;;15.27;8.80;;;;;;;;;;6105623;23;20013;-82
2023/04/25 01:15:40;;;;;;;15.75;9.27;;;;;;;;;;6084255;23;20013;-82
2023/04/25 01:18:06;;;;;;;14.50;9.05;;;;;;;;;;6136032;23;20065;-82
2023/04/25 01:20:32;;;;;;;12.88;9.80;;;;;;;;;;6136883;23;20010;-83
2023/04/25 01:22:59;;;;;;;18.02;9.98;;;;;;;;;;6069121;23;20033;-85
2023/04/25 01:25:25;;;;;;;11.27;9.48;;;;;;;;;;6095285;23;20073;-83
2023/04/25 01:27:51;;;;;;;11.55;9.05;;;;;;;;;;6083727;23;20056;-82
2023/04/25 01:30:17;;;;;;;19.00;10.77;;;;;;;;;;6103470;23;20021;-82
2023/04/25 01:32:43;;;;;;;11.48;9.57;;;;;;;;;;6114434;23;20069;-83
2023/04/25 01:35:10;;;;;;;14.18;10.00;;;;;;;;;;6119908;23;20024;-84
2023/04/25 01:37:40;;;;;;;22.83;9.77;;;;;;;;;;6143036;23;20041;-83
2023/04/25 01:40:06;;;;;;;14.73;9.93;;;;;;;;;;6141621;23;20018;-85
2023/04/25 01:42:33;;;;;;;14.85;8.82;;;;;;;;;;6144699;23;20036;-84
2023/04/25 01:44:59;;;;;;;15.35;9.43;;;;;;;;;;6114307;23;20048;-83
2023/04/25 01:47:31;;;;;;;19.38;9.68;;;;;;;;;;6111983;23;20533;-83
2023/04/25 01:49:57;;;;;;;19.70;9.02;;;;;;;;;;6111321;23;20506;-84
2023/04/25 01:52:23;;;;;;;13.45;8.57;;;;;;;;;;6113751;23;20041;-83
2023/04/25 01:54:49;;;;;;;15.60;9.23;;;;;;;;;;6113669;23;20021;-84
2023/04/25 01:57:15;;;;;;;17.42;9.82;;;;;;;;;;6114069;23;20022;-84
2023/04/25 01:59:43;;;;;;;16.95;9.75;;;;;;;;;;6117124;23;20010;-83
2023/04/25 02:02:20;;;;;;;26.30;9.95;;;;;;;;;;6093310;23;20013;-81
2023/04/25 02:04:46;;;;;;;11.68;8.80;;;;;;;;;;6112389;23;20014;-82
2023/04/25 02:07:13;;;;;;;9.85;7.95;;;;;;;;;;6089949;23;20026;-82
2023/04/25 02:09:52;;;;;;;11.80;7.60;;;;;;;;;;6090355;23;20025;-84
2023/04/25 02:12:19;;;;;;;10.60;6.53;;;;;;;;;;6113789;23;20578;-82
2023/04/25 02:15:08;;;;;;;6.85;5.43;;;;;;;;;;6115150;23;20014;-83
2023/04/25 02:17:45;;;;;;;8.80;6.15;;;;;;;;;;6065094;23;20014;-84
2023/04/25 02:20:12;;;;;;;7.60;5.68;;;;;;;;;;6108056;23;20498;-84
2023/04/25 02:22:39;;;;;;;6.97;5.82;;;;;;;;;;6108800;23;20093;-84
2023/04/25 02:25:06;;;;;;;9.15;5.90;;;;;;;;;;6081050;23;20053;-82
2023/04/25 02:27:32;;;;;;;11.10;6.55;;;;;;;;;;6102525;23;20109;-82
2023/04/25 02:29:58;;;;;;;13.38;6.32;;;;;;;;;;6100614;23;20013;-82
2023/04/25 02:32:27;;;;;;;7.03;6.15;;;;;;;;;;6098393;23;20014;-83
2023/04/25 02:34:53;;;;;;;6.70;5.95;;;;;;;;;;6130139;23;20014;-83
2023/04/25 02:37:19;;;;;;;10.10;6.40;;;;;;;;;;6078288;23;20018;-81
2023/04/25 02:39:46;;;;;;;7.40;5.75;;;;;;;;;;6126501;23;20036;-82
2023/04/25 02:42:12;;;;;;;7.95;5.60;;;;;;;;;;6129812;23;20044;-81
2023/04/25 02:44:41;;;;;;;8.77;5.97;;;;;;;;;;6104797;23;20482;-82
2023/04/25 02:47:07;;;;;;;9.40;6.80;;;;;;;;;;6111779;23;20021;-81
2023/04/25 02:49:34;;;;;;;7.90;6.40;;;;;;;;;;6131849;23;20018;-81
2023/04/25 02:52:00;;;;;;;7.18;5.65;;;;;;;;;;6104022;23;20014;-82
2023/04/25 02:54:26;;;;;;;7.35;6.60;;;;;;;;;;6100802;23;20022;-81
2023/04/25 02:56:52;;;;;;;7.47;6.30;;;;;;;;;;6078240;23;20013;-82
2023/04/25 02:59:24;;;;;;;9.35;6.47;;;;;;;;;;6105113;23;20017;-84
2023/04/25 03:01:50;;;;;;;15.77;6.75;;;;;;;;;;6143619;23;20014;-85
2023/04/25 03:04:18;;;;;;;11.70;6.85;;;;;;;;;;6119788;23;20022;-86
2023/04/25 03:06:45;;;;;;;14.93;6.43;;;;;;;;;;6114615;23;20017;-86
2023/04/25 03:09:12;;;;;;;6.55;5.50;;;;;;;;;;6099132;23;20088;-81
2023/04/25 03:11:41;;;;;;;7.72;6.10;;;;;;;;;;6076397;23;20018;-82
2023/04/25 03:14:07;;;;;;;14.88;7.10;;;;;;;;;;6103099;23;20014;-82
2023/04/25 03:16:33;;;;;;;7.38;6.30;;;;;;;;;;6112899;23;20013;-83
2023/04/25 03:18:59;;;;;;;8.13;6.57;;;;;;;;;;6144647;23;20034;-83
2023/04/25 03:21:31;;;;;;;7.68;5.50;;;;;;;;;;6119229;23;20025;-86
2023/04/25 03:24:00;;;;;;;12.30;5.53;;;;;;;;;;6092930;23;20014;-82
2023/04/25 03:26:26;;;;;;;21.60;6.72;;;;;;;;;;6074269;23;20022;-80
2023/04/25 03:28:52;;;;;;;12.15;6.35;;;;;;;;;;6096457;23;20010;-81
2023/04/25 03:31:18;;;;;;;16.65;6.65;;;;;;;;;;6096706;23;20100;-81
2023/04/25 03:33:46;;;;;;;9.23;5.85;;;;;;;;;;6096891;23;20232;-79
2023/04/25 03:36:12;;;;;;;6.82;6.15;;;;;;;;;;6097021;23;20057;-80
2023/04/25 03:38:41;;;;;;;8.02;6.45;;;;;;;;;;6072990;23;20308;-79
2023/04/25 03:41:07;;;;;;;11.55;6.45;;;;;;;;;;6072950;23;20018;-79
2023/04/25 03:43:45;;;;;;;9.32;6.18;;;;;;;;;;6096764;23;20022;-79
2023/04/25 03:46:13;;;;;;;7.75;6.43;;;;;;;;;;6122664;23;20029;-80
2023/04/25 03:48:42;;;;;;;7.57;6.30;;;;;;;;;;6073871;23;20108;-77
2023/04/25 03:51:12;;;;;;;8.57;7.30;;;;;;;;;;6073301;23;20093;-80
2023/04/25 03:53:41;;;;;;;12.87;7.50;;;;;;;;;;6096396;23;20010;-80
2023/04/25 03:56:20;;;;;;;12.75;7.47;;;;;;;;;;6096663;23;20018;-79
2023/04/25 03:58:54;;;;;;;9.20;7.15;;;;;;;;;;6099013;23;20009;-79
2023/04/25 04:01:25;;;;;;;11.82;6.93;;;;;;;;;;6074609;23;20113;-80
2023/04/25 04:03:52;;;;;;;10.40;6.97;;;;;;;;;;6078717;23;20017;-79
2023/04/25 04:06:18;;;;;;;9.45;6.13;;;;;;;;;;6098158;23;20439;-79
2023/04/25 04:08:49;;;;;;;9.65;6.13;;;;;;;;;;6098025;23;20014;-78
2023/04/25 04:11:17;;;;;;;10.70;6.63;;;;;;;;;;6098331;23;20025;-78
2023/04/25 04:13:43;;;;;;;10.55;5.60;;;;;;;;;;6098048;23;20459;-77
2023/04/25 04:16:13;;;;;;;5.35;4.65;;;;;;;;;;6098842;23;20013;-78
2023/04/25 04:18:39;;;;;;;9.20;6.57;;;;;;;;;;6098056;23;20089;-78
2023/04/25 04:21:05;;;;;;;9.25;6.43;;;;;;;;;;6074934;23;20070;-78
2023/04/25 04:23:34;;;;;;;14.43;6.70;;;;;;;;;;6073999;23;20442;-79
2023/04/25 04:26:01;;;;;;;10.73;6.55;;;;;;;;;;6074171;23;20010;-77
2023/04/25 04:28:37;;;;;;;10.65;5.93;;;;;;;;;;6100328;23;20025;-82
2023/04/25 04:31:26;;;;;;;7.40;6.20;;;;;;;;;;6115102;23;20041;-82
2023/04/25 04:33:52;;;;;;;6.85;5.72;;;;;;;;;;6125418;23;20017;-80
2023/04/25 04:36:22;;;;;;;9.45;6.13;;;;;;;;;;6100373;23;20014;-82
2023/04/25 04:38:50;;;;;;;12.50;5.40;;;;;;;;;;6058501;23;20014;-83
2023/04/25 04:41:31;;;;;;;13.15;5.88;;;;;;;;;;6108456;23;20355;-84
2023/04/25 04:44:20;;;;;;;12.43;6.30;;;;;;;;;;6130523;23;20013;-83
2023/04/25 04:47:10;;;;;;;10.32;6.28;;;;;;;;;;6124200;23;20471;-75
2023/04/25 04:49:53;;;;;;;7.82;7.03;;;;;;;;;;6123490;23;20025;-75
2023/04/25 04:52:30;;;;;;;6.32;5.82;;;;;;;;;;6091743;23;20025;-76
2023/04/25 04:55:15;;;;;;;10.27;5.80;;;;;;;;;;6123053;23;20010;-76
2023/04/25 04:58:05;;;;;;;11.38;6.00;;;;;;;;;;6097325;23;20344;-75
2023/04/25 05:00:31;;;;;;;10.18;6.05;;;;;;;;;;6096839;23;20467;-75
2023/04/25 05:03:16;;;;;;;7.05;6.03;;;;;;;;;;6100785;23;20065;-75
2023/04/25 05:05:51;;;;;;;7.15;6.45;;;;;;;;;;6123148;23;20145;-75
2023/04/25 05:08:36;;;;;;;8.18;5.60;;;;;;;;;;6096516;23;20117;-76
2023/04/25 05:11:15;;;;;;;10.40;5.93;;;;;;;;;;6122986;23;20022;-75
2023/04/25 05:14:02;;;;;;;7.85;5.28;;;;;;;;;;6077699;23;20357;-77
2023/04/25 05:16:44;;;;;;;7.75;5.35;;;;;;;;;;6096867;23;20139;-76
2023/04/25 05:19:20;;;;;;;7.78;5.72;;;;;;;;;;6097735;23;20020;-76
2023/04/25 05:22:00;;;;;;;7.22;4.75;;;;;;;;;;6100042;23;20410;-75
2023/04/25 05:25:05;;;;;;;15.35;5.43;;;;;;;;;;6100084;23;20084;-77
2023/04/25 05:27:52;;;;;;;8.10;5.22;;;;;;;;;;6076512;23;20034;-74
2023/04/25 05:30:28;;;;;;;8.20;5.30;;;;;;;;;;6122580;23;20014;-75
2023/04/25 05:32:58;;;;;;;6.88;5.05;;;;;;;;;;6122625;23;20085;-75
2023/04/25 05:35:24;;;;;;;8.60;5.13;;;;;;;;;;6096788;23;20010;-76
2023/04/25 05:37:50;;;;;;;9.23;5.22;;;;;;;;;;6122625;23;20024;-76
2023/04/25 05:40:17;;;;;;;8.77;5.25;;;;;;;;;;6072925;23;20010;-76
2023/04/25 05:42:44;;;;;;;5.25;4.75;;;;;;;;;;6096454;23;20014;-76
2023/04/25 05:45:28;;;;;;;6.22;4.80;;;;;;;;;;6122873;23;20403;-76
2023/04/25 05:48:17;;;;;;;10.45;5.10;;;;;;;;;;6110415;23;20026;-76
2023/04/25 05:51:07;;;;;;;6.30;3.97;;;;;;;;;;6114033;23;20022;-76
2023/04/25 05:53:44;;;;;;;7.28;4.10;;;;;;;;;;6096537;23;20014;-76
2023/04/25 05:56:11;;;;;;;13.90;7.07;;;;;;;;;;6074341;23;20021;-76
2023/04/25 05:58:37;;;;;;;10.02;4.68;;;;;;;;;;6103910;23;20666;-75
2023/04/25 06:01:04;;;;;;;7.10;4.43;;;;;;;;;;6101985;23;20117;-76
2023/04/25 06:03:31;;;;;;;8.27;4.38;;;;;;;;;;6134456;23;20014;-76
2023/04/25 06:05:58;;;;;;;7.40;4.63;;;;;;;;;;6115809;23;20020;-77
2023/04/25 06:08:25;;;;;;;5.40;4.57;;;;;;;;;;6112619;23;20014;-76
2023/04/25 06:10:51;;;;;;;4.07;3.75;;;;;;;;;;6114693;23;20010;-77
2023/04/25 06:13:18;;;;;;;9.05;4.50;;;;;;;;;;6142892;23;20018;-76
2023/04/25 06:15:44;;;;;;;7.75;4.57;;;;;;;;;;6102751;23;20528;-75
2023/04/25 06:18:11;;;;;;;6.63;3.92;;;;;;;;;;6109106;23;20522;-74
2023/04/25 06:20:37;;;;;;;9.95;4.30;;;;;;;;;;6108455;23;20010;-76
2023/04/25 06:23:03;;;;;;;8.98;5.25;;;;;;;;;;6097905;23;20014;-76
2023/04/25 06:25:47;;;;;;;5.63;3.97;;;;;;;;;;6121968;23;20014;-77
2023/04/25 06:28:13;;;;;;;4.68;3.40;;;;;;;;;;6094187;23;20029;-77
2023/04/25 06:30:40;;;;;;;9.25;3.90;;;;;;;;;;6093489;23;20009;-76
2023/04/25 06:33:11;;;;;;;16.83;5.05;;;;;;;;;;6095972;23;20014;-77
2023/04/25 06:35:38;;;;;;;4.43;3.65;;;;;;;;;;6071728;23;20470;-76
2023/04/25 06:38:06;;;;;;;3.70;3.15;;;;;;;;;;6096408;23;20018;-78
2023/04/25 06:40:32;;;;;;;7.65;3.08;;;;;;;;;;6095956;23;20037;-77
2023/04/25 06:42:59;;;;;;;7.78;2.90;;;;;;;;;;6095965;23;20025;-78
2023/04/25 06:45:56;;;;;;;4.93;3.60;;;;;;;;;;6095981;23;20455;-77
2023/04/25 06:48:25;;;;;;;6.70;3.65;;;;;;;;;;6096088;23;20104;-76
2023/04/25 06:50:52;;;;;;;4.85;3.75;;;;;;;;;;6072477;23;20463;-76
2023/04/25 06:53:19;;;;;;;8.90;5.43;;;;;;;;;;6072759;23;20471;-76
2023/04/25 06:55:49;;;;;;;;;;;;;;;;;;6096572;23;20038;-77
2023/04/25 06:58:20;;;;;;;12.23;4.00;;;;;;;;;;6094302;23;20262;-75
2023/04/25 07:01:15;;;;;;;9.48;3.42;;;;;;;;;;6108406;23;20018;-74
2023/04/25 07:03:42;;;;;;;6.95;3.58;;;;;;;;;;6096121;23;20024;-75
2023/04/25 07:06:13;;;;;;;10.80;3.90;;;;;;;;;;6096337;23;20492;-74
2023/04/25 07:08:40;;;;;;;13.48;3.55;;;;;;;;;;6122219;23;20010;-77
2023/04/25 07:11:06;;;;;;;7.68;4.78;;;;;;;;;;6096802;23;20022;-76
2023/04/25 07:13:32;;;;;;;7.18;3.25;;;;;;;;;;6072076;23;20517;-76
2023/04/25 07:15:59;;;;;;;8.00;2.97;;;;;;;;;;6122048;23;20523;-78
2023/04/25 07:18:27;;;;;;;10.38;3.40;;;;;;;;;;6096471;23;20040;-77
2023/04/25 07:20:53;;;;;;;4.40;2.95;;;;;;;;;;6123031;23;20041;-77
2023/04/25 07:23:20;;;;;;;5.05;3.40;;;;;;;;;;6114862;23;20014;-76
2023/04/25 07:25:47;;;;;;;8.65;3.60;;;;;;;;;;6114759;23;20053;-76
2023/04/25 07:28:16;;;;;;;4.40;3.30;;;;;;;;;;6105530;23;20018;-76
2023/04/25 07:30:42;;;;;;;5.80;3.35;;;;;;;;;;6100468;23;20017;-77
2023/04/25 07:33:08;;;;;;;4.63;2.85;;;;;;;;;;6140398;23;20021;-76
2023/04/25 07:35:34;;;;;;;6.95;4.35;;;;;;;;;;6139980;23;20010;-75
2023/04/25 07:38:01;;;;;;;8.40;3.40;;;;;;;;;;6137433;23;20522;-76
2023/04/25 07:40:28;;;;;;;9.23;4.07;;;;;;;;;;6081964;23;20017;-75
2023/04/25 07:43:00;;;;;;;4.15;2.83;;;;;;;;;;6098481;23;20040;-75
2023/04/25 07:45:33;;;;;;;5.20;3.30;;;;;;;;;;6097969;23;20013;-75
2023/04/25 07:48:00;;;;;;;7.25;3.28;;;;;;;;;;6074522;23;20030;-75
2023/04/25 07:50:26;;;;;;;5.18;3.30;;;;;;;;;;6098753;23;20043;-73
2023/04/25 07:52:53;;;;;;;7.40;3.20;;;;;;;;;;6098708;23;20017;-75
2023/04/25 07:55:26;;;;;;;5.18;3.03;;;;;;;;;;6098754;23;20451;-75
2023/04/25 07:58:02;;;;;;;6.00;3.00;;;;;;;;;;6074326;23;20525;-75
2023/04/25 08:00:30;;;;;;;4.60;3.13;;;;;;;;;;6098662;23;20017;-74
2023/04/25 08:03:16;;;;;;;5.13;3.28;;;;;;;;;;6124291;23;20463;-75
2023/04/25 08:05:42;;;;;;;3.28;2.60;;;;;;;;;;6098378;23;20014;-75
2023/04/25 08:08:08;;;;;;;7.03;3.58;;;;;;;;;;6098671;23;20026;-74
2023/04/25 08:10:34;;;;;;;4.40;3.50;;;;;;;;;;6098730;23;20010;-75
2023/04/25 08:13:00;;;;;;;6.05;3.08;;;;;;;;;;6074087;23;20017;-75
2023/04/25 08:15:27;;;;;;;5.88;2.83;;;;;;;;;;6050473;23;20010;-75
2023/04/25 08:17:53;;;;;;;3.60;2.72;;;;;;;;;;6098267;23;20522;-75
2023/04/25 08:20:19;;;;;;;7.65;3.50;;;;;;;;;;6125039;23;20037;-74
2023/04/25 08:22:46;;;;;;;5.50;3.60;;;;;;;;;;6098058;23;20010;-75
2023/04/25 08:25:23;;;;;;;10.63;3.17;;;;;;;;;;6098093;23;20006;-75
2023/04/25 08:27:49;;;;;;;3.67;2.67;;;;;;;;;;6123852;23;20541;-75
2023/04/25 08:30:16;;;;;;;4.28;3.05;;;;;;;;;;6074606;23;20018;-74
2023/04/25 08:32:43;;;;;;;8.15;2.83;;;;;;;;;;6098096;23;20024;-74
2023/04/25 08:35:39;;;;;;;4.80;2.50;;;;;;;;;;6098183;23;20021;-75
2023/04/25 08:38:06;;;;;;;4.32;2.60;;;;;;;;;;6097906;23;20021;-75
2023/04/25 08:40:32;;;;;;;6.05;2.95;;;;;;;;;;6098738;23;20024;-76
2023/04/25 08:43:11;;;;;;;6.20;3.08;;;;;;;;;;6099715;23;20021;-75
2023/04/25 08:45:41;;;;;;;4.65;4.07;;;;;;;;;;6074864;23;20014;-75
2023/04/25 08:48:10;;;;;;;7.88;2.75;;;;;;;;;;6097869;23;20025;-75
2023/04/25 08:50:40;;;;;;;2.63;2.42;;;;;;;;;;6098035;23;20041;-75
2023/04/25 08:53:07;;;;;;;2.10;1.50;;;;;;;;;;6123718;23;20017;-75
2023/04/25 08:55:33;;;;;;;3.83;2.08;;;;;;;;;;6097876;23;20300;-75
2023/04/25 08:57:59;;;;;;;4.03;2.53;;;;;;;;;;6123317;23;20014;-75
2023/04/25 09:00:26;;;;;;;7.75;3.40;;;;;;;;;;6097717;23;20024;-75
2023/04/25 09:02:52;;;;;;;3.22;2.90;;;;;;;;;;6097906;23;20407;-75
2023/04/25 09:05:18;;;;;;;6.30;2.75;;;;;;;;;;6074084;23;20017;-75
2023/04/25 09:07:44;;;;;;;3.70;2.25;;;;;;;;;;6097759;23;20029;-75
2023/04/25 09:10:10;;;;;;;3.10;2.45;;;;;;;;;;6097658;23;20466;-75
2023/04/25 09:12:38;;;;;;;7.75;3.58;;;;;;;;;;6098420;23;20529;-75
2023/04/25 09:15:07;;;;;;;3.20;2.90;;;;;;;;;;6097631;23;20864;-74
2023/04/25 09:18:04;;;;;;;1.85;1.75;;;;;;;;;;6079851;23;20009;-74
2023/04/25 09:20:44;;;;;;;3.97;2.70;;;;;;;;;;6097875;23;20014;-73
2023/04/25 09:23:10;;;;;;;3.85;2.92;;;;;;;;;;6050078;23;20462;-74
2023/04/25 09:25:38;;;;;;;9.43;2.65;;;;;;;;;;6098119;23;20356;-74
2023/04/25 09:28:06;;;;;;;5.85;2.97;;;;;;;;;;6074510;23;20027;-75
2023/04/25 09:30:33;;;;;;;3.22;2.70;;;;;;;;;;6098749;23;20010;-76
2023/04/25 09:33:18;;;;;;;3.83;2.08;;;;;;;;;;6098647;23;20336;-74
2023/04/25 09:35:54;;;;;;;3.00;2.80;;;;;;;;;;6074441;23;20014;-75
2023/04/25 09:38:43;;;;;;;6.38;2.92;;;;;;;;;;6110456;23;20014;-74
2023/04/25 09:41:16;;;;;;;3.60;2.97;;;;;;;;;;6080991;23;20014;-74
2023/04/25 09:43:45;;;;;;;4.43;2.67;;;;;;;;;;6074309;23;20459;-74
2023/04/25 09:46:11;;;;;;;2.38;2.15;;;;;;;;;;6097091;23;20029;-74
2023/04/25 09:48:41;;;;;;;4.55;3.28;;;;;;;;;;6073070;23;20025;-74
2023/04/25 09:51:13;;;;;;;9.15;3.08;;;;;;;;;;6073735;23;20410;-74
2023/04/25 09:53:46;;;;;;;9.70;2.60;;;;;;;;;;6097344;23;20014;-75
2023/04/25 09:56:28;;;;;;;3.25;2.92;;;;;;;;;;6097149;23;20517;-73
2023/04/25 09:58:54;;;;;;;2.97;2.78;;;;;;;;;;6097203;23;20041;-74
2023/04/25 10:01:20;;;;;;;6.45;3.17;;;;;;;;;;6123249;23;20014;-74
2023/04/25 10:04:00;;;;;;;4.95;3.00;;;;;;;;;;6075156;23;20014;-74
2023/04/25 10:06:55;;;;;;;4.22;2.88;;;;;;;;;;6111336;23;20029;-74
2023/04/25 10:09:22;;;;;;;10.77;2.78;;;;;;;;;;6097100;23;20053;-75
2023/04/25 10:11:49;;;;;;;2.50;2.30;;;;;;;;;;6097204;23;20021;-74
2023/04/25 10:14:15;;;;;;;5.95;2.45;;;;;;;;;;6123371;23;20064;-73
2023/04/25 10:16:41;;;;;;;2.85;1.90;;;;;;;;;;6123252;23;20014;-74
2023/04/25 10:19:07;;;;;;;2.78;2.58;;;;;;;;;;6096835;23;20025;-76
2023/04/25 10:21:33;;;;;;;2.17;1.98;;;;;;;;;;6097181;23;20018;-74
2023/04/25 10:23:59;;;;;;;2.92;2.33;;;;;;;;;;6122844;23;20043;-74
2023/04/25 10:26:25;;;;;;;1.80;1.70;;;;;;;;;;6097216;23;20459;-75
2023/04/25 10:29:09;;;;;;;6.45;2.53;;;;;;;;;;6122967;23;20068;-76
2023/04/25 10:31:37;;;;;;;2.53;2.40;;;;;;;;;;6097418;23;20473;-75
2023/04/25 10:34:03;;;;;;;6.65;2.17;;;;;;;;;;6096892;23;20014;-74
2023/04/25 10:36:31;;;;;;;4.65;2.47;;;;;;;;;;6097234;23;20018;-74
2023/04/25 10:39:00;;;;;;;5.07;2.17;;;;;;;;;;6122763;23;20124;-74
2023/04/25 10:41:26;;;;;;;3.00;2.60;;;;;;;;;;6097690;23;20026;-74
2023/04/25 10:43:59;;;;;;;3.33;2.00;;;;;;;;;;6048720;23;20081;-74
2023/04/25 10:46:26;;;;;;;4.90;2.38;;;;;;;;;;6123462;23;20494;-72
2023/04/25 10:48:55;;;;;;;2.10;2.00;;;;;;;;;;6097111;23;20026;-73
2023/04/25 10:51:26;;;;;;;3.90;2.15;;;;;;;;;;6074231;23;20025;-73
2023/04/25 10:53:56;;;;;;;2.50;2.30;;;;;;;;;;6096985;23;20018;-73
2023/04/25 10:56:23;;;;;;;3.40;3.10;;;;;;;;;;6122757;23;20065;-74
2023/04/25 10:58:49;;;;;;;3.47;2.33;;;;;;;;;;6073408;23;20016;-74
2023/04/25 11:01:15;;;;;;;3.38;2.72;;;;;;;;;;6122333;23;20088;-73
2023/04/25 11:03:42;;;;;;;6.25;2.50;;;;;;;;;;6097279;23;20014;-74
2023/04/25 11:06:29;;;;;;;6.45;2.80;;;;;;;;;;6072664;23;20017;-73
2023/04/25 11:08:55;;;;;;;5.18;2.75;;;;;;;;;;6098865;23;20053;-73
2023/04/25 11:11:22;;;;;;;6.05;3.00;;;;;;;;;;6124932;23;20451;-72
2023/04/25 11:13:48;;;;;;;4.93;2.60;;;;;;;;;;6099213;23;20013;-73
2023/04/25 11:16:14;;;;;;;2.08;1.85;;;;;;;;;;6124492;23;20014;-72
2023/04/25 11:18:41;;;;;;;3.22;2.63;;;;;;;;;;6099314;23;20351;-73
2023/04/25 11:21:07;;;;;;;4.97;2.88;;;;;;;;;;6124313;23;20041;-73
2023/04/25 11:23:33;;;;;;;4.10;2.70;;;;;;;;;;6099084;23;20473;-74
2023/04/25 11:26:01;;;;;;;8.25;3.38;;;;;;;;;;6098816;23;20020;-73
2023/04/25 11:28:27;;;;;;;8.40;2.72;;;;;;;;;;6099404;23;20069;-74
2023/04/25 11:30:53;;;;;;;7.20;3.08;;;;;;;;;;6098584;23;20083;-73
2023/04/25 11:33:23;;;;;;;8.80;2.38;;;;;;;;;;6099002;23;20471;-73
2023/04/25 11:35:56;;;;;;;2.63;2.42;;;;;;;;;;6099220;23;20069;-73
2023/04/25 11:38:22;;;;;;;9.45;5.03;;;;;;;;;;6125087;23;20020;-73
2023/04/25 11:40:51;;;;;;;4.88;2.72;;;;;;;;;;6098719;23;20525;-74
2023/04/25 11:43:18;;;;;;;3.15;2.70;;;;;;;;;;6125117;23;20014;-74
2023/04/25 11:45:46;;;;;;;4.07;2.70;;;;;;;;;;6101431;23;20065;-74
2023/04/25 11:48:15;;;;;;;5.10;2.45;;;;;;;;;;6051793;23;20371;-75
2023/04/25 11:50:41;;;;;;;3.60;2.58;;;;;;;;;;6126616;23;20010;-74
2023/04/25 11:53:08;;;;;;;5.53;2.80;;;;;;;;;;6126686;23;20041;-74
2023/04/25 11:55:34;;;;;;;10.63;2.83;;;;;;;;;;6077851;23;20113;-74
2023/04/25 11:58:01;;;;;;;3.58;2.42;;;;;;;;;;6125793;23;20046;-73
2023/04/25 12:00:27;;;;;;;3.38;2.40;;;;;;;;;;6099059;23;20061;-73
2023/04/25 12:02:53;;;;;;;4.35;2.78;;;;;;;;;;6074759;23;20463;-73
2023/04/25 12:05:20;;;;;;;2.58;2.38;;;;;;;;;;6125284;23;20374;-73
2023/04/25 12:07:46;;;;;;;7.07;3.15;;;;;;;;;;6100249;23;20584;-73
2023/04/25 12:10:13;;;;;;;2.97;2.40;;;;;;;;;;6124028;23;20311;-73
2023/04/25 12:12:43;;;;;;;3.03;2.83;;;;;;;;;;6124160;23;20013;-73
2023/04/25 12:15:14;;;;;;;3.03;2.80;;;;;;;;;;6074483;23;20068;-73
2023/04/25 12:17:40;;;;;;;7.43;2.92;;;;;;;;;;6098578;23;20093;-74
2023/04/25 12:20:10;;;;;;;3.90;2.97;;;;;;;;;;6124271;23;20048;-73
2023/04/25 12:22:36;;;;;;;5.13;3.30;;;;;;;;;;6124619;23;20096;-73
2023/04/25 12:25:04;;;;;;;6.32;3.53;;;;;;;;;;6098530;23;20018;-73
2023/04/25 12:27:33;;;;;;;3.03;2.88;;;;;;;;;;6098333;23;20108;-73
2023/04/25 12:29:59;;;;;;;4.78;3.30;;;;;;;;;;6073785;23;20454;-73
2023/04/25 12:32:26;;;;;;;3.15;2.95;;;;;;;;;;6124203;23;20013;-73
2023/04/25 12:34:52;;;;;;;10.43;3.40;;;;;;;;;;6124408;23;20020;-74
2023/04/25 12:37:18;;;;;;;2.92;2.45;;;;;;;;;;6098224;23;20021;-73
2023/04/25 12:39:45;;;;;;;3.40;3.20;;;;;;;;;;6124469;23;20089;-72
2023/04/25 12:42:13;;;;;;;3.53;3.08;;;;;;;;;;6074867;23;20021;-74
2023/04/25 12:44:40;;;;;;;8.30;3.13;;;;;;;;;;6124878;23;20100;-73
2023/04/25 12:47:06;;;;;;;5.00;3.42;;;;;;;;;;6100368;23;20406;-73
2023/04/25 12:49:33;;;;;;;5.00;2.92;;;;;;;;;;6127390;23;20010;-73
2023/04/25 12:51:59;;;;;;;11.27;3.33;;;;;;;;;;6131687;23;20073;-74
2023/04/25 12:54:25;;;;;;;4.65;2.75;;;;;;;;;;6128377;23;20006;-73
2023/04/25 12:56:52;;;;;;;3.80;3.30;;;;;;;;;;6125814;23;20025;-74
2023/04/25 12:59:19;;;;;;;2.72;2.40;;;;;;;;;;6125623;23;20032;-73
2023/04/25 13:01:46;;;;;;;3.97;3.30;;;;;;;;;;6100712;23;20014;-74
2023/04/25 13:07:20;;;;;;;5.57;3.40;;;;;;;;;;6074837;23;20529;-74
2023/04/25 13:09:48;;;;;;;4.05;2.63;;;;;;;;;;6075978;23;20101;-73
2023/04/25 13:12:15;;;;;;;5.65;2.95;;;;;;;;;;6099299;23;20014;-73
2023/04/25 13:14:45;;;;;;;5.82;3.28;;;;;;;;;;6075245;23;20016;-73
2023/04/25 13:17:11;;;;;;;8.07;3.30;;;;;;;;;;6049811;23;20025;-73
2023/04/25 13:19:39;;;;;;;3.60;3.30;;;;;;;;;;6098122;23;20014;-73
2023/04/25 13:22:08;;;;;;;6.10;3.42;;;;;;;;;;6050038;23;20041;-73
2023/04/25 13:24:34;;;;;;;5.65;3.65;;;;;;;;;;6049920;23;20009;-73
2023/04/25 13:27:02;;;;;;;4.00;3.70;;;;;;;;;;6087077;23;20052;-73
2023/04/25 13:29:34;;;;;;;6.63;4.00;;;;;;;;;;6097312;23;20021;-73
2023/04/25 13:32:00;;;;;;;7.25;3.38;;;;;;;;;;6073209;23;20017;-74
2023/04/25 13:34:30;;;;;;;4.82;3.67;;;;;;;;;;6050313;23;20093;-73
2023/04/25 13:36:57;;;;;;;5.18;3.28;;;;;;;;;;6073882;23;20504;-73
2023/04/25 13:39:35;;;;;;;3.78;3.40;;;;;;;;;;6097325;23;20010;-73
2023/04/25 13:42:05;;;;;;;4.30;3.88;;;;;;;;;;6098848;23;20022;-73
2023/04/25 13:44:32;;;;;;;3.50;3.20;;;;;;;;;;6074061;23;20101;-73
2023/04/25 13:47:03;;;;;;;5.38;3.35;;;;;;;;;;6073011;23;20060;-73
2023/04/25 13:49:29;;;;;;;4.15;3.55;;;;;;;;;;6073605;23;20147;-73
2023/04/25 13:51:59;;;;;;;4.15;3.75;;;;;;;;;;6050325;23;20474;-73
2023/04/25 13:54:28;;;;;;;3.58;3.38;;;;;;;;;;6098515;23;20014;-73
2023/04/25 13:56:58;;;;;;;7.22;3.60;;;;;;;;;;6073412;23;20367;-73
2023/04/25 13:59:28;;;;;;;11.18;4.20;;;;;;;;;;6096758;23;20025;-73
2023/04/25 14:02:03;;;;;;;5.20;4.05;;;;;;;;;;6094685;23;20018;-73
2023/04/25 14:04:32;;;;;;;4.32;4.00;;;;;;;;;;6099162;23;20029;-73
2023/04/25 14:07:02;;;;;;;4.40;3.85;;;;;;;;;;6074470;23;20050;-73
2023/04/25 14:12:21;;;;;;;5.80;4.10;;;;;;;;;;6054691;23;20017;-74
2023/04/25 14:14:53;;;;;;;4.20;3.80;;;;;;;;;;6024823;23;20022;-74
2023/04/25 14:17:28;;;;;;;3.97;3.58;;;;;;;;;;6098639;23;20045;-76
2023/04/25 14:19:58;;;;;;;5.55;3.42;;;;;;;;;;6074291;23;20051;-74
2023/04/25 14:22:32;;;;;;;11.07;4.20;;;;;;;;;;6110295;23;20018;-74
2023/04/25 14:25:06;;;;;;;4.28;3.63;;;;;;;;;;6071509;23;20013;-73
2023/04/25 14:27:42;;;;;;;3.47;3.28;;;;;;;;;;6089277;23;20112;-74
2023/04/25 14:30:09;;;;;;;6.50;3.25;;;;;;;;;;6111873;23;20046;-73
2023/04/25 14:32:44;;;;;;;5.80;3.70;;;;;;;;;;6053452;23;20081;-73
2023/04/25 14:35:11;;;;;;;7.65;3.50;;;;;;;;;;6074385;23;20045;-74
2023/04/25 14:37:41;;;;;;;3.47;3.17;;;;;;;;;;6098138;23;20037;-73
2023/04/25 14:40:13;;;;;;;3.83;3.40;;;;;;;;;;6049592;23;20013;-73
2023/04/25 14:42:39;;;;;;;4.18;3.28;;;;;;;;;;6050700;23;20018;-74
2023/04/25 14:45:07;;;;;;;9.63;3.47;;;;;;;;;;6073549;23;20029;-73
2023/04/25 14:47:34;;;;;;;4.10;3.70;;;;;;;;;;6049167;23;20479;-73
2023/04/25 14:50:01;;;;;;;4.15;3.80;;;;;;;;;;6073754;23;20018;-74
2023/04/25 14:52:30;;;;;;;3.63;3.35;;;;;;;;;;6097180;23;20093;-74
2023/04/25 14:54:56;;;;;;;12.20;3.65;;;;;;;;;;6049820;23;20113;-73
2023/04/25 14:57:26;;;;;;;5.15;3.40;;;;;;;;;;6049110;23;20017;-73
2023/04/25 14:59:54;;;;;;;16.70;4.13;;;;;;;;;;6073723;23;20014;-74